sensor_id;sensor_type;location;lat;lon;timestamp;temperature;humidity
36458;DHT22;22480;50.546;12.292;2022-07-22T00:01:21;16.50;99.90
36458;DHT22;22480;50.546;12.292;2022-07-22T00:03:47;16.40;99.90
36458;DHT22;22480;50.546;12.292;2022-07-22T00:06:13;16.40;99.90
36458;DHT22;22480;50.546;12.292;2022-07-22T00:08:38;16.30;99.90
36458;DHT22;22480;50.546;12.292;2022-07-22T00:11:05;16.30;99.90
36458;DHT22;22480;50.546;12.292;2022-07-22T00:13:31;16.30;99.90
36458;DHT22;22480;50.546;12.292;2022-07-22T00:15:57;16.40;99.90
36458;DHT22;22480;50.546;12.292;2022-07-22T00:18:23;16.40;99.90
36458;DHT22;22480;50.546;12.292;2022-07-22T00:20:48;16.30;99.90
36458;DHT22;22480;50.546;12.292;2022-07-22T00:23:14;16.20;99.90
36458;DHT22;22480;50.546;12.292;2022-07-22T00:25:40;16.10;99.90
36458;DHT22;22480;50.546;12.292;2022-07-22T00:28:06;16.10;99.90
36458;DHT22;22480;50.546;12.292;2022-07-22T00:30:32;15.90;99.90
36458;DHT22;22480;50.546;12.292;2022-07-22T00:32:57;15.90;99.90
36458;DHT22;22480;50.546;12.292;2022-07-22T00:35:23;15.90;99.90
36458;DHT22;22480;50.546;12.292;2022-07-22T00:37:49;15.80;99.90
36458;DHT22;22480;50.546;12.292;2022-07-22T00:40:15;15.90;99.90
36458;DHT22;22480;50.546;12.292;2022-07-22T00:42:40;15.70;99.90
36458;DHT22;22480;50.546;12.292;2022-07-22T00:45:07;15.60;99.90
36458;DHT22;22480;50.546;12.292;2022-07-22T00:47:33;15.50;99.90
36458;DHT22;22480;50.546;12.292;2022-07-22T00:49:59;15.50;99.90
36458;DHT22;22480;50.546;12.292;2022-07-22T00:52:25;15.50;99.90
36458;DHT22;22480;50.546;12.292;2022-07-22T00:54:51;15.40;99.90
36458;DHT22;22480;50.546;12.292;2022-07-22T00:57:17;15.30;99.90
36458;DHT22;22480;50.546;12.292;2022-07-22T00:59:43;15.30;99.90
36458;DHT22;22480;50.546;12.292;2022-07-22T01:02:08;15.30;99.90
36458;DHT22;22480;50.546;12.292;2022-07-22T01:04:35;15.20;99.90
36458;DHT22;22480;50.546;12.292;2022-07-22T01:07:01;15.10;99.90
36458;DHT22;22480;50.546;12.292;2022-07-22T01:09:27;15.00;99.90
36458;DHT22;22480;50.546;12.292;2022-07-22T01:11:52;15.00;99.90
36458;DHT22;22480;50.546;12.292;2022-07-22T01:14:18;15.00;99.90
36458;DHT22;22480;50.546;12.292;2022-07-22T01:16:44;15.10;99.90
36458;DHT22;22480;50.546;12.292;2022-07-22T01:19:10;15.20;99.90
36458;DHT22;22480;50.546;12.292;2022-07-22T01:21:36;15.20;99.90
36458;DHT22;22480;50.546;12.292;2022-07-22T01:24:02;15.20;99.90
36458;DHT22;22480;50.546;12.292;2022-07-22T01:26:27;15.10;99.90
36458;DHT22;22480;50.546;12.292;2022-07-22T01:28:53;15.10;99.90
36458;DHT22;22480;50.546;12.292;2022-07-22T01:31:19;15.00;99.90
36458;DHT22;22480;50.546;12.292;2022-07-22T01:33:45;15.00;99.90
36458;DHT22;22480;50.546;12.292;2022-07-22T01:36:11;14.90;99.90
36458;DHT22;22480;50.546;12.292;2022-07-22T01:38:38;14.90;99.90
36458;DHT22;22480;50.546;12.292;2022-07-22T01:41:04;14.90;99.90
36458;DHT22;22480;50.546;12.292;2022-07-22T01:43:30;14.90;99.90
36458;DHT22;22480;50.546;12.292;2022-07-22T01:45:55;14.80;99.90
36458;DHT22;22480;50.546;12.292;2022-07-22T01:48:22;14.70;99.90
36458;DHT22;22480;50.546;12.292;2022-07-22T01:50:48;14.60;99.90
36458;DHT22;22480;50.546;12.292;2022-07-22T01:53:15;14.50;99.90
36458;DHT22;22480;50.546;12.292;2022-07-22T01:55:43;14.50;99.90
36458;DHT22;22480;50.546;12.292;2022-07-22T01:58:10;14.50;99.90
36458;DHT22;22480;50.546;12.292;2022-07-22T02:00:37;14.50;99.90
36458;DHT22;22480;50.546;12.292;2022-07-22T02:03:03;14.50;99.90
36458;DHT22;22480;50.546;12.292;2022-07-22T02:05:31;14.50;99.90
36458;DHT22;22480;50.546;12.292;2022-07-22T02:08:04;14.50;99.90
36458;DHT22;22480;50.546;12.292;2022-07-22T02:10:43;14.40;99.90
36458;DHT22;22480;50.546;12.292;2022-07-22T02:13:09;14.60;99.90
36458;DHT22;22480;50.546;12.292;2022-07-22T02:15:35;14.60;99.90
36458;DHT22;22480;50.546;12.292;2022-07-22T02:18:13;14.60;99.90
36458;DHT22;22480;50.546;12.292;2022-07-22T02:20:41;14.50;99.90
36458;DHT22;22480;50.546;12.292;2022-07-22T02:23:07;14.40;99.90
36458;DHT22;22480;50.546;12.292;2022-07-22T02:25:34;14.30;99.90
36458;DHT22;22480;50.546;12.292;2022-07-22T02:28:00;14.20;99.90
36458;DHT22;22480;50.546;12.292;2022-07-22T02:30:26;14.10;99.90
36458;DHT22;22480;50.546;12.292;2022-07-22T02:32:52;14.10;99.90
36458;DHT22;22480;50.546;12.292;2022-07-22T02:35:18;14.10;99.90
36458;DHT22;22480;50.546;12.292;2022-07-22T02:37:43;14.10;99.90
36458;DHT22;22480;50.546;12.292;2022-07-22T02:40:10;14.00;99.90
36458;DHT22;22480;50.546;12.292;2022-07-22T02:42:37;14.00;99.90
36458;DHT22;22480;50.546;12.292;2022-07-22T02:45:03;14.00;99.90
36458;DHT22;22480;50.546;12.292;2022-07-22T02:47:30;14.00;99.90
36458;DHT22;22480;50.546;12.292;2022-07-22T02:49:56;14.00;99.90
36458;DHT22;22480;50.546;12.292;2022-07-22T02:52:22;14.00;99.90
36458;DHT22;22480;50.546;12.292;2022-07-22T02:54:48;14.10;99.90
36458;DHT22;22480;50.546;12.292;2022-07-22T02:57:16;14.10;99.90
36458;DHT22;22480;50.546;12.292;2022-07-22T02:59:41;14.10;99.90
36458;DHT22;22480;50.546;12.292;2022-07-22T03:02:07;14.10;99.90
36458;DHT22;22480;50.546;12.292;2022-07-22T03:04:33;14.10;99.90
36458;DHT22;22480;50.546;12.292;2022-07-22T03:06:59;14.10;99.90
36458;DHT22;22480;50.546;12.292;2022-07-22T03:09:24;14.10;99.90
36458;DHT22;22480;50.546;12.292;2022-07-22T03:11:50;14.10;99.90
36458;DHT22;22480;50.546;12.292;2022-07-22T03:14:16;14.20;99.90
36458;DHT22;22480;50.546;12.292;2022-07-22T03:16:44;14.10;99.90
36458;DHT22;22480;50.546;12.292;2022-07-22T03:19:10;14.00;99.90
36458;DHT22;22480;50.546;12.292;2022-07-22T03:21:36;13.90;99.90
36458;DHT22;22480;50.546;12.292;2022-07-22T03:24:01;13.90;99.90
36458;DHT22;22480;50.546;12.292;2022-07-22T03:26:27;13.80;99.90
36458;DHT22;22480;50.546;12.292;2022-07-22T03:28:53;13.70;99.90
36458;DHT22;22480;50.546;12.292;2022-07-22T03:31:18;13.80;99.90
36458;DHT22;22480;50.546;12.292;2022-07-22T03:33:45;13.70;99.90
36458;DHT22;22480;50.546;12.292;2022-07-22T03:36:11;13.70;99.90
36458;DHT22;22480;50.546;12.292;2022-07-22T03:38:39;13.70;99.90
36458;DHT22;22480;50.546;12.292;2022-07-22T03:41:06;13.80;99.90
36458;DHT22;22480;50.546;12.292;2022-07-22T03:43:32;13.90;99.90
36458;DHT22;22480;50.546;12.292;2022-07-22T03:45:59;14.00;99.90
36458;DHT22;22480;50.546;12.292;2022-07-22T03:48:26;14.10;99.90
36458;DHT22;22480;50.546;12.292;2022-07-22T03:50:52;14.20;99.90
36458;DHT22;22480;50.546;12.292;2022-07-22T03:53:18;14.40;99.90
36458;DHT22;22480;50.546;12.292;2022-07-22T03:55:44;14.50;99.90
36458;DHT22;22480;50.546;12.292;2022-07-22T03:58:09;14.60;99.90
36458;DHT22;22480;50.546;12.292;2022-07-22T04:00:35;14.60;99.90
36458;DHT22;22480;50.546;12.292;2022-07-22T04:03:04;14.60;99.90
36458;DHT22;22480;50.546;12.292;2022-07-22T04:05:52;14.60;99.90
36458;DHT22;22480;50.546;12.292;2022-07-22T04:08:28;14.60;99.90
36458;DHT22;22480;50.546;12.292;2022-07-22T04:10:53;14.60;99.90
36458;DHT22;22480;50.546;12.292;2022-07-22T04:13:19;14.60;99.90
36458;DHT22;22480;50.546;12.292;2022-07-22T04:15:50;14.60;99.90
36458;DHT22;22480;50.546;12.292;2022-07-22T04:18:15;14.70;99.90
36458;DHT22;22480;50.546;12.292;2022-07-22T04:20:43;14.70;99.90
36458;DHT22;22480;50.546;12.292;2022-07-22T04:23:21;14.70;99.90
36458;DHT22;22480;50.546;12.292;2022-07-22T04:25:47;14.70;99.90
36458;DHT22;22480;50.546;12.292;2022-07-22T04:28:13;14.80;99.90
36458;DHT22;22480;50.546;12.292;2022-07-22T04:30:40;14.90;99.90
36458;DHT22;22480;50.546;12.292;2022-07-22T04:33:06;14.90;99.90
36458;DHT22;22480;50.546;12.292;2022-07-22T04:35:32;15.00;99.90
36458;DHT22;22480;50.546;12.292;2022-07-22T04:38:08;15.10;99.90
36458;DHT22;22480;50.546;12.292;2022-07-22T04:40:36;15.20;99.90
36458;DHT22;22480;50.546;12.292;2022-07-22T04:43:01;15.40;99.90
36458;DHT22;22480;50.546;12.292;2022-07-22T04:45:27;15.50;99.90
36458;DHT22;22480;50.546;12.292;2022-07-22T04:47:53;15.60;99.90
36458;DHT22;22480;50.546;12.292;2022-07-22T04:50:18;15.60;99.90
36458;DHT22;22480;50.546;12.292;2022-07-22T04:52:44;15.80;99.90
36458;DHT22;22480;50.546;12.292;2022-07-22T04:55:10;15.90;99.90
36458;DHT22;22480;50.546;12.292;2022-07-22T04:57:36;16.00;99.90
36458;DHT22;22480;50.546;12.292;2022-07-22T05:00:04;16.10;99.90
36458;DHT22;22480;50.546;12.292;2022-07-22T05:02:41;16.20;99.90
36458;DHT22;22480;50.546;12.292;2022-07-22T05:05:07;16.40;99.90
36458;DHT22;22480;50.546;12.292;2022-07-22T05:07:32;16.50;99.90
36458;DHT22;22480;50.546;12.292;2022-07-22T05:09:58;16.60;99.90
36458;DHT22;22480;50.546;12.292;2022-07-22T05:12:24;16.90;99.90
36458;DHT22;22480;50.546;12.292;2022-07-22T05:14:50;17.60;99.90
36458;DHT22;22480;50.546;12.292;2022-07-22T05:17:15;18.20;99.90
36458;DHT22;22480;50.546;12.292;2022-07-22T05:19:51;18.80;99.90
36458;DHT22;22480;50.546;12.292;2022-07-22T05:22:16;19.40;99.90
36458;DHT22;22480;50.546;12.292;2022-07-22T05:24:42;19.90;99.90
36458;DHT22;22480;50.546;12.292;2022-07-22T05:27:08;20.40;99.90
36458;DHT22;22480;50.546;12.292;2022-07-22T05:29:33;20.80;99.90
36458;DHT22;22480;50.546;12.292;2022-07-22T05:32:01;21.20;99.90
36458;DHT22;22480;50.546;12.292;2022-07-22T05:34:26;21.70;99.90
36458;DHT22;22480;50.546;12.292;2022-07-22T05:36:54;22.00;99.90
36458;DHT22;22480;50.546;12.292;2022-07-22T05:39:20;22.30;99.90
36458;DHT22;22480;50.546;12.292;2022-07-22T05:41:45;22.40;99.90
36458;DHT22;22480;50.546;12.292;2022-07-22T05:44:11;22.60;99.50
36458;DHT22;22480;50.546;12.292;2022-07-22T05:46:37;22.80;98.50
36458;DHT22;22480;50.546;12.292;2022-07-22T05:49:05;22.90;98.50
36458;DHT22;22480;50.546;12.292;2022-07-22T05:51:38;23.10;98.20
36458;DHT22;22480;50.546;12.292;2022-07-22T05:54:04;23.30;97.80
36458;DHT22;22480;50.546;12.292;2022-07-22T05:56:30;23.70;97.30
36458;DHT22;22480;50.546;12.292;2022-07-22T05:58:56;24.10;95.70
36458;DHT22;22480;50.546;12.292;2022-07-22T06:01:22;24.40;94.50
36458;DHT22;22480;50.546;12.292;2022-07-22T06:03:52;24.20;94.20
36458;DHT22;22480;50.546;12.292;2022-07-22T06:06:18;24.00;94.40
36458;DHT22;22480;50.546;12.292;2022-07-22T06:08:46;23.60;94.80
36458;DHT22;22480;50.546;12.292;2022-07-22T06:11:11;23.20;96.00
36458;DHT22;22480;50.546;12.292;2022-07-22T06:13:37;23.40;96.30
36458;DHT22;22480;50.546;12.292;2022-07-22T06:16:03;23.20;96.60
36458;DHT22;22480;50.546;12.292;2022-07-22T06:18:30;22.90;97.60
36458;DHT22;22480;50.546;12.292;2022-07-22T06:20:55;22.90;98.00
36458;DHT22;22480;50.546;12.292;2022-07-22T06:23:25;22.90;98.10
36458;DHT22;22480;50.546;12.292;2022-07-22T06:25:51;23.00;97.70
36458;DHT22;22480;50.546;12.292;2022-07-22T06:28:24;23.20;97.70
36458;DHT22;22480;50.546;12.292;2022-07-22T06:30:50;23.60;98.00
36458;DHT22;22480;50.546;12.292;2022-07-22T06:33:17;24.00;95.60
36458;DHT22;22480;50.546;12.292;2022-07-22T06:35:42;23.80;95.90
36458;DHT22;22480;50.546;12.292;2022-07-22T06:38:09;23.80;95.80
36458;DHT22;22480;50.546;12.292;2022-07-22T06:40:55;23.70;95.60
36458;DHT22;22480;50.546;12.292;2022-07-22T06:43:45;23.80;95.20
36458;DHT22;22480;50.546;12.292;2022-07-22T06:46:30;23.80;95.30
36458;DHT22;22480;50.546;12.292;2022-07-22T06:48:56;23.50;95.60
36458;DHT22;22480;50.546;12.292;2022-07-22T06:51:22;23.60;95.20
36458;DHT22;22480;50.546;12.292;2022-07-22T06:53:47;23.80;94.80
36458;DHT22;22480;50.546;12.292;2022-07-22T06:56:13;24.00;94.80
36458;DHT22;22480;50.546;12.292;2022-07-22T06:58:40;24.70;93.70
36458;DHT22;22480;50.546;12.292;2022-07-22T07:01:09;25.10;93.20
36458;DHT22;22480;50.546;12.292;2022-07-22T07:03:46;25.60;93.00
36458;DHT22;22480;50.546;12.292;2022-07-22T07:06:12;26.10;90.00
36458;DHT22;22480;50.546;12.292;2022-07-22T07:08:56;25.90;90.20
36458;DHT22;22480;50.546;12.292;2022-07-22T07:11:23;25.50;91.00
36458;DHT22;22480;50.546;12.292;2022-07-22T07:13:50;25.80;89.00
36458;DHT22;22480;50.546;12.292;2022-07-22T07:16:15;25.80;89.60
36458;DHT22;22480;50.546;12.292;2022-07-22T07:18:41;25.60;90.00
36458;DHT22;22480;50.546;12.292;2022-07-22T07:21:07;25.20;90.10
36458;DHT22;22480;50.546;12.292;2022-07-22T07:23:33;25.00;90.20
36458;DHT22;22480;50.546;12.292;2022-07-22T07:25:58;24.70;90.60
36458;DHT22;22480;50.546;12.292;2022-07-22T07:28:24;24.70;91.10
36458;DHT22;22480;50.546;12.292;2022-07-22T07:30:56;24.60;91.40
36458;DHT22;22480;50.546;12.292;2022-07-22T07:33:22;24.60;91.70
36458;DHT22;22480;50.546;12.292;2022-07-22T07:35:48;24.60;91.90
36458;DHT22;22480;50.546;12.292;2022-07-22T07:38:19;24.80;91.80
36458;DHT22;22480;50.546;12.292;2022-07-22T07:40:45;25.10;90.70
36458;DHT22;22480;50.546;12.292;2022-07-22T07:43:11;25.30;90.70
36458;DHT22;22480;50.546;12.292;2022-07-22T07:45:37;25.50;88.20
36458;DHT22;22480;50.546;12.292;2022-07-22T07:48:04;25.50;88.70
36458;DHT22;22480;50.546;12.292;2022-07-22T07:50:30;25.50;88.90
36458;DHT22;22480;50.546;12.292;2022-07-22T07:52:57;25.60;87.20
36458;DHT22;22480;50.546;12.292;2022-07-22T07:55:25;25.80;87.70
36458;DHT22;22480;50.546;12.292;2022-07-22T07:57:51;26.00;86.50
36458;DHT22;22480;50.546;12.292;2022-07-22T08:00:24;25.60;86.10
36458;DHT22;22480;50.546;12.292;2022-07-22T08:02:52;25.10;86.60
36458;DHT22;22480;50.546;12.292;2022-07-22T08:05:18;24.50;89.10
36458;DHT22;22480;50.546;12.292;2022-07-22T08:07:45;24.50;90.50
36458;DHT22;22480;50.546;12.292;2022-07-22T08:10:10;25.00;87.90
36458;DHT22;22480;50.546;12.292;2022-07-22T08:13:06;25.40;87.80
36458;DHT22;22480;50.546;12.292;2022-07-22T08:15:52;26.10;84.40
36458;DHT22;22480;50.546;12.292;2022-07-22T08:18:20;26.20;84.50
36458;DHT22;22480;50.546;12.292;2022-07-22T08:20:46;26.30;82.90
36458;DHT22;22480;50.546;12.292;2022-07-22T08:23:13;26.20;83.60
36458;DHT22;22480;50.546;12.292;2022-07-22T08:25:41;26.30;82.20
36458;DHT22;22480;50.546;12.292;2022-07-22T08:28:07;26.30;79.70
36458;DHT22;22480;50.546;12.292;2022-07-22T08:30:34;26.40;79.40
36458;DHT22;22480;50.546;12.292;2022-07-22T08:32:59;26.40;80.60
36458;DHT22;22480;50.546;12.292;2022-07-22T08:35:25;26.70;78.80
36458;DHT22;22480;50.546;12.292;2022-07-22T08:37:51;26.40;80.30
36458;DHT22;22480;50.546;12.292;2022-07-22T08:40:18;26.60;78.80
36458;DHT22;22480;50.546;12.292;2022-07-22T08:42:46;26.70;78.00
36458;DHT22;22480;50.546;12.292;2022-07-22T08:45:14;26.70;77.90
36458;DHT22;22480;50.546;12.292;2022-07-22T08:47:40;26.90;76.10
36458;DHT22;22480;50.546;12.292;2022-07-22T08:50:21;26.80;74.60
36458;DHT22;22480;50.546;12.292;2022-07-22T08:53:19;26.70;77.30
36458;DHT22;22480;50.546;12.292;2022-07-22T08:55:47;26.50;75.70
36458;DHT22;22480;50.546;12.292;2022-07-22T08:58:14;26.60;74.90
36458;DHT22;22480;50.546;12.292;2022-07-22T09:00:40;26.70;75.00
36458;DHT22;22480;50.546;12.292;2022-07-22T09:05:43;27.10;75.50
36458;DHT22;22480;50.546;12.292;2022-07-22T09:08:10;27.50;73.50
36458;DHT22;22480;50.546;12.292;2022-07-22T09:11:16;27.30;72.90
36458;DHT22;22480;50.546;12.292;2022-07-22T09:14:00;27.10;74.50
36458;DHT22;22480;50.546;12.292;2022-07-22T09:16:46;27.20;73.60
36458;DHT22;22480;50.546;12.292;2022-07-22T09:19:38;27.00;72.30
36458;DHT22;22480;50.546;12.292;2022-07-22T09:22:50;27.50;70.90
36458;DHT22;22480;50.546;12.292;2022-07-22T09:25:35;27.40;69.90
36458;DHT22;22480;50.546;12.292;2022-07-22T09:28:22;27.10;72.70
36458;DHT22;22480;50.546;12.292;2022-07-22T09:31:06;27.20;75.00
36458;DHT22;22480;50.546;12.292;2022-07-22T09:33:37;27.50;72.40
36458;DHT22;22480;50.546;12.292;2022-07-22T09:36:18;28.00;71.80
36458;DHT22;22480;50.546;12.292;2022-07-22T09:38:43;28.30;70.20
36458;DHT22;22480;50.546;12.292;2022-07-22T09:41:09;28.70;68.70
36458;DHT22;22480;50.546;12.292;2022-07-22T09:43:36;29.20;69.40
36458;DHT22;22480;50.546;12.292;2022-07-22T09:46:03;29.60;64.60
36458;DHT22;22480;50.546;12.292;2022-07-22T09:48:50;29.70;63.30
36458;DHT22;22480;50.546;12.292;2022-07-22T09:51:34;29.30;64.70
36458;DHT22;22480;50.546;12.292;2022-07-22T09:54:29;29.70;64.10
36458;DHT22;22480;50.546;12.292;2022-07-22T09:56:57;29.80;63.30
36458;DHT22;22480;50.546;12.292;2022-07-22T09:59:23;30.20;62.00
36458;DHT22;22480;50.546;12.292;2022-07-22T10:01:58;30.20;61.70
36458;DHT22;22480;50.546;12.292;2022-07-22T10:04:27;30.30;62.30
36458;DHT22;22480;50.546;12.292;2022-07-22T10:06:56;30.40;61.30
36458;DHT22;22480;50.546;12.292;2022-07-22T10:09:27;30.20;60.20
36458;DHT22;22480;50.546;12.292;2022-07-22T10:11:54;30.20;59.60
36458;DHT22;22480;50.546;12.292;2022-07-22T10:14:23;30.50;58.20
36458;DHT22;22480;50.546;12.292;2022-07-22T10:16:53;30.50;57.90
36458;DHT22;22480;50.546;12.292;2022-07-22T10:19:19;30.10;59.20
36458;DHT22;22480;50.546;12.292;2022-07-22T10:21:45;30.40;60.80
36458;DHT22;22480;50.546;12.292;2022-07-22T10:24:15;30.60;60.80
36458;DHT22;22480;50.546;12.292;2022-07-22T10:26:58;30.30;59.30
36458;DHT22;22480;50.546;12.292;2022-07-22T10:43:03;30.40;58.40
36458;DHT22;22480;50.546;12.292;2022-07-22T10:45:46;30.80;58.00
36458;DHT22;22480;50.546;12.292;2022-07-22T10:48:21;31.70;58.10
36458;DHT22;22480;50.546;12.292;2022-07-22T10:50:49;32.50;55.40
36458;DHT22;22480;50.546;12.292;2022-07-22T10:53:23;32.40;53.30
36458;DHT22;22480;50.546;12.292;2022-07-22T11:01:06;34.00;52.40
36458;DHT22;22480;50.546;12.292;2022-07-22T11:03:33;34.10;50.60
36458;DHT22;22480;50.546;12.292;2022-07-22T11:06:27;33.50;51.70
36458;DHT22;22480;50.546;12.292;2022-07-22T11:08:58;33.10;52.80
36458;DHT22;22480;50.546;12.292;2022-07-22T11:11:36;33.50;55.80
36458;DHT22;22480;50.546;12.292;2022-07-22T11:14:11;34.00;49.70
36458;DHT22;22480;50.546;12.292;2022-07-22T11:16:36;32.90;52.50
36458;DHT22;22480;50.546;12.292;2022-07-22T11:19:02;32.60;51.20
36458;DHT22;22480;50.546;12.292;2022-07-22T11:21:30;32.40;52.60
36458;DHT22;22480;50.546;12.292;2022-07-22T11:23:58;32.30;54.20
36458;DHT22;22480;50.546;12.292;2022-07-22T11:26:41;32.30;51.10
36458;DHT22;22480;50.546;12.292;2022-07-22T11:29:08;32.30;51.20
36458;DHT22;22480;50.546;12.292;2022-07-22T11:31:36;32.40;50.00
36458;DHT22;22480;50.546;12.292;2022-07-22T11:34:08;33.40;50.40
36458;DHT22;22480;50.546;12.292;2022-07-22T11:36:36;34.30;50.40
36458;DHT22;22480;50.546;12.292;2022-07-22T11:39:02;34.80;50.80
36458;DHT22;22480;50.546;12.292;2022-07-22T11:41:29;35.10;50.00
36458;DHT22;22480;50.546;12.292;2022-07-22T11:43:56;35.60;49.10
36458;DHT22;22480;50.546;12.292;2022-07-22T11:46:21;35.40;47.10
36458;DHT22;22480;50.546;12.292;2022-07-22T11:48:48;34.80;46.60
36458;DHT22;22480;50.546;12.292;2022-07-22T11:51:14;35.10;47.90
36458;DHT22;22480;50.546;12.292;2022-07-22T11:53:41;35.60;48.00
36458;DHT22;22480;50.546;12.292;2022-07-22T11:56:08;36.40;46.20
36458;DHT22;22480;50.546;12.292;2022-07-22T12:01:13;37.00;45.70
36458;DHT22;22480;50.546;12.292;2022-07-22T12:03:41;37.80;44.40
36458;DHT22;22480;50.546;12.292;2022-07-22T12:06:09;38.10;42.70
36458;DHT22;22480;50.546;12.292;2022-07-22T12:08:41;37.80;43.10
36458;DHT22;22480;50.546;12.292;2022-07-22T12:11:08;37.10;42.00
36458;DHT22;22480;50.546;12.292;2022-07-22T12:13:34;36.90;43.40
36458;DHT22;22480;50.546;12.292;2022-07-22T12:16:20;37.20;43.80
36458;DHT22;22480;50.546;12.292;2022-07-22T12:18:57;37.50;42.10
36458;DHT22;22480;50.546;12.292;2022-07-22T12:21:25;37.90;43.10
36458;DHT22;22480;50.546;12.292;2022-07-22T12:23:56;37.80;41.50
36458;DHT22;22480;50.546;12.292;2022-07-22T12:26:45;37.50;42.70
36458;DHT22;22480;50.546;12.292;2022-07-22T12:29:27;37.40;43.40
36458;DHT22;22480;50.546;12.292;2022-07-22T12:31:55;36.50;43.80
36458;DHT22;22480;50.546;12.292;2022-07-22T12:37:23;36.30;46.10
36458;DHT22;22480;50.546;12.292;2022-07-22T12:40:04;36.70;44.90
36458;DHT22;22480;50.546;12.292;2022-07-22T12:42:42;37.30;44.80
36458;DHT22;22480;50.546;12.292;2022-07-22T12:45:10;37.80;42.90
36458;DHT22;22480;50.546;12.292;2022-07-22T12:50:32;38.20;43.00
36458;DHT22;22480;50.546;12.292;2022-07-22T12:53:03;37.50;42.30
36458;DHT22;22480;50.546;12.292;2022-07-22T12:55:30;36.90;43.70
36458;DHT22;22480;50.546;12.292;2022-07-22T12:57:56;36.40;44.30
36458;DHT22;22480;50.546;12.292;2022-07-22T13:00:27;36.60;45.40
36458;DHT22;22480;50.546;12.292;2022-07-22T13:02:54;37.00;41.90
36458;DHT22;22480;50.546;12.292;2022-07-22T13:05:21;36.00;43.50
36458;DHT22;22480;50.546;12.292;2022-07-22T13:07:47;35.90;44.60
36458;DHT22;22480;50.546;12.292;2022-07-22T13:10:14;36.70;42.60
36458;DHT22;22480;50.546;12.292;2022-07-22T13:12:40;37.40;42.00
36458;DHT22;22480;50.546;12.292;2022-07-22T13:15:06;39.00;41.40
36458;DHT22;22480;50.546;12.292;2022-07-22T13:17:33;39.30;41.00
36458;DHT22;22480;50.546;12.292;2022-07-22T13:19:59;39.60;40.10
36458;DHT22;22480;50.546;12.292;2022-07-22T13:22:24;40.60;40.80
36458;DHT22;22480;50.546;12.292;2022-07-22T13:24:50;40.70;39.00
36458;DHT22;22480;50.546;12.292;2022-07-22T13:27:16;40.40;39.20
36458;DHT22;22480;50.546;12.292;2022-07-22T13:29:42;40.00;40.00
36458;DHT22;22480;50.546;12.292;2022-07-22T13:32:08;40.30;39.40
36458;DHT22;22480;50.546;12.292;2022-07-22T13:34:34;39.30;39.80
36458;DHT22;22480;50.546;12.292;2022-07-22T13:37:03;39.70;40.60
36458;DHT22;22480;50.546;12.292;2022-07-22T13:39:28;39.90;39.90
36458;DHT22;22480;50.546;12.292;2022-07-22T13:41:54;39.10;40.80
36458;DHT22;22480;50.546;12.292;2022-07-22T13:44:20;39.40;40.00
36458;DHT22;22480;50.546;12.292;2022-07-22T13:46:45;40.10;43.30
36458;DHT22;22480;50.546;12.292;2022-07-22T13:49:12;40.10;38.90
36458;DHT22;22480;50.546;12.292;2022-07-22T13:51:38;40.10;40.00
36458;DHT22;22480;50.546;12.292;2022-07-22T13:54:04;40.60;39.50
36458;DHT22;22480;50.546;12.292;2022-07-22T13:56:31;40.80;39.40
36458;DHT22;22480;50.546;12.292;2022-07-22T13:58:58;40.50;39.40
36458;DHT22;22480;50.546;12.292;2022-07-22T14:01:24;39.60;39.30
36458;DHT22;22480;50.546;12.292;2022-07-22T14:03:50;40.30;39.30
36458;DHT22;22480;50.546;12.292;2022-07-22T14:06:16;40.90;40.40
36458;DHT22;22480;50.546;12.292;2022-07-22T14:08:41;40.00;38.10
36458;DHT22;22480;50.546;12.292;2022-07-22T14:11:07;39.00;40.00
36458;DHT22;22480;50.546;12.292;2022-07-22T14:13:33;38.80;39.80
36458;DHT22;22480;50.546;12.292;2022-07-22T14:15:59;38.70;43.30
36458;DHT22;22480;50.546;12.292;2022-07-22T14:18:44;39.10;40.70
36458;DHT22;22480;50.546;12.292;2022-07-22T14:21:10;38.50;39.30
36458;DHT22;22480;50.546;12.292;2022-07-22T14:23:36;38.50;40.60
36458;DHT22;22480;50.546;12.292;2022-07-22T14:26:01;38.30;40.20
36458;DHT22;22480;50.546;12.292;2022-07-22T14:28:27;38.20;40.20
36458;DHT22;22480;50.546;12.292;2022-07-22T14:30:53;38.90;39.50
36458;DHT22;22480;50.546;12.292;2022-07-22T14:33:18;39.20;39.50
36458;DHT22;22480;50.546;12.292;2022-07-22T14:35:44;39.60;38.50
36458;DHT22;22480;50.546;12.292;2022-07-22T14:38:09;40.00;38.80
36458;DHT22;22480;50.546;12.292;2022-07-22T14:40:35;40.10;39.20
36458;DHT22;22480;50.546;12.292;2022-07-22T14:43:01;40.20;38.10
36458;DHT22;22480;50.546;12.292;2022-07-22T14:45:26;40.40;39.30
36458;DHT22;22480;50.546;12.292;2022-07-22T14:47:52;40.20;39.60
36458;DHT22;22480;50.546;12.292;2022-07-22T14:50:18;40.40;38.40
36458;DHT22;22480;50.546;12.292;2022-07-22T14:52:43;41.00;36.80
36458;DHT22;22480;50.546;12.292;2022-07-22T14:55:09;41.50;38.40
36458;DHT22;22480;50.546;12.292;2022-07-22T14:57:35;41.70;35.70
36458;DHT22;22480;50.546;12.292;2022-07-22T15:00:00;41.10;36.80
36458;DHT22;22480;50.546;12.292;2022-07-22T15:02:26;41.40;36.80
36458;DHT22;22480;50.546;12.292;2022-07-22T15:04:52;41.20;37.90
36458;DHT22;22480;50.546;12.292;2022-07-22T15:07:17;40.10;38.90
36458;DHT22;22480;50.546;12.292;2022-07-22T15:09:43;39.70;39.70
36458;DHT22;22480;50.546;12.292;2022-07-22T15:12:09;38.60;40.80
36458;DHT22;22480;50.546;12.292;2022-07-22T15:14:34;38.10;40.80
36458;DHT22;22480;50.546;12.292;2022-07-22T15:17:00;37.30;41.90
36458;DHT22;22480;50.546;12.292;2022-07-22T15:19:26;37.20;42.80
36458;DHT22;22480;50.546;12.292;2022-07-22T15:21:51;37.40;42.40
36458;DHT22;22480;50.546;12.292;2022-07-22T15:24:17;37.10;42.10
36458;DHT22;22480;50.546;12.292;2022-07-22T15:26:42;36.80;42.20
36458;DHT22;22480;50.546;12.292;2022-07-22T15:29:08;36.60;42.80
36458;DHT22;22480;50.546;12.292;2022-07-22T15:31:34;36.00;43.40
36458;DHT22;22480;50.546;12.292;2022-07-22T15:34:00;35.80;43.80
36458;DHT22;22480;50.546;12.292;2022-07-22T15:36:26;35.60;44.00
36458;DHT22;22480;50.546;12.292;2022-07-22T15:38:52;35.50;44.80
36458;DHT22;22480;50.546;12.292;2022-07-22T15:41:17;35.00;45.00
36458;DHT22;22480;50.546;12.292;2022-07-22T15:43:44;34.80;45.70
36458;DHT22;22480;50.546;12.292;2022-07-22T15:46:09;34.80;45.50
36458;DHT22;22480;50.546;12.292;2022-07-22T15:48:36;34.90;45.90
36458;DHT22;22480;50.546;12.292;2022-07-22T15:51:02;34.90;45.40
36458;DHT22;22480;50.546;12.292;2022-07-22T15:53:28;35.00;45.00